Time;durP1;ratioP1;P1;durP2;ratioP2;P2;SDS_P1;SDS_P2;PMS_P1;PMS_P2;Temp;Humidity;BMP_temperature;BMP_pressure;BME280_temperature;BME280_humidity;BME280_pressure;Samples;Min_cycle;Max_cycle;Signal;HPM_P1;HPM_P2
2022/04/02 00:00:18;;;;;;;2.10;0.50;;;19.10;99.90;;;;;;5073585;28;20236;-74
2022/04/02 00:02:48;;;;;;;0.77;0.40;;;19.20;99.90;;;;;;5076383;28;20207;-73
2022/04/02 00:05:19;;;;;;;1.23;0.50;;;19.20;99.90;;;;;;5077814;28;20679;-75
2022/04/02 00:07:50;;;;;;;1.73;0.40;;;19.30;99.90;;;;;;5072022;28;20257;-72
2022/04/02 00:10:20;;;;;;;0.73;0.30;;;19.30;99.90;;;;;;5076129;28;20663;-75
2022/04/02 00:12:56;;;;;;;0.70;0.45;;;19.40;99.90;;;;;;5073640;28;20587;-74
2022/04/02 00:15:27;;;;;;;2.20;0.43;;;19.40;99.90;;;;;;5073025;28;20195;-72
2022/04/02 00:17:57;;;;;;;2.08;0.43;;;19.40;99.90;;;;;;5078483;28;20194;-77
2022/04/02 00:20:28;;;;;;;2.45;0.80;;;19.40;99.90;;;;;;5072524;28;20186;-72
2022/04/02 00:25:46;;;;;;;2.78;0.52;;;19.50;99.90;;;;;;5078562;28;20214;-80
2022/04/02 00:28:19;;;;;;;1.23;0.40;;;19.50;99.90;;;;;;5075164;28;20190;-80
2022/04/02 00:30:50;;;;;;;1.52;0.40;;;19.50;99.90;;;;;;5079148;28;20284;-71
2022/04/02 00:33:20;;;;;;;1.52;0.45;;;19.60;99.90;;;;;;5074789;28;20197;-73
2022/04/02 00:35:51;;;;;;;1.50;0.40;;;19.60;99.90;;;;;;5075166;28;20185;-73
2022/04/02 00:38:22;;;;;;;2.47;0.90;;;19.60;99.90;;;;;;5077938;28;20224;-72
2022/04/02 00:40:52;;;;;;;2.55;0.32;;;19.70;99.90;;;;;;5080145;28;20196;-72
2022/04/02 00:43:30;;;;;;;1.10;0.50;;;19.70;99.90;;;;;;5079570;28;20234;-76
2022/04/02 00:46:03;;;;;;;1.70;0.47;;;19.80;99.90;;;;;;5075619;28;20223;-75
2022/04/02 00:48:34;;;;;;;3.45;0.35;;;19.90;99.90;;;;;;5076808;28;20200;-73
2022/04/02 00:51:08;;;;;;;1.52;0.40;;;20.00;99.90;;;;;;5078288;28;20189;-71
2022/04/02 00:53:42;;;;;;;0.47;0.30;;;20.00;99.90;;;;;;5077373;28;20231;-73
2022/04/02 00:56:15;;;;;;;1.38;0.40;;;20.00;99.90;;;;;;5077472;28;20197;-78
2022/04/02 00:58:48;;;;;;;1.55;0.30;;;20.00;99.90;;;;;;5076471;28;20189;-74
2022/04/02 01:01:19;;;;;;;1.50;0.40;;;20.00;99.90;;;;;;5073617;28;20194;-79
2022/04/02 01:03:50;;;;;;;0.45;0.17;;;20.10;99.90;;;;;;5079430;28;20186;-76
2022/04/02 01:06:20;;;;;;;0.52;0.28;;;20.30;99.90;;;;;;5076781;28;20300;-71
2022/04/02 01:08:51;;;;;;;1.25;0.75;;;20.40;99.90;;;;;;5079019;28;20644;-76
2022/04/02 01:11:25;;;;;;;1.70;0.40;;;20.30;99.90;;;;;;5077025;28;20239;-76
2022/04/02 01:13:57;;;;;;;0.28;0.20;;;20.30;99.90;;;;;;5076641;28;20197;-73
2022/04/02 01:16:28;;;;;;;1.42;0.45;;;20.30;99.90;;;;;;5067665;28;20715;-72
2022/04/02 01:19:05;;;;;;;1.35;0.32;;;20.20;99.90;;;;;;5081055;28;20185;-72
2022/04/02 01:21:36;;;;;;;0.45;0.13;;;20.20;99.90;;;;;;5082616;28;20252;-73
2022/04/02 01:24:09;;;;;;;2.63;0.73;;;20.20;99.90;;;;;;5080227;28;20193;-76
2022/04/02 01:26:40;;;;;;;0.70;0.30;;;20.20;99.90;;;;;;5084094;28;20212;-72
2022/04/02 01:29:11;;;;;;;0.30;0.30;;;20.30;99.90;;;;;;5069216;28;20565;-73
2022/04/02 01:31:45;;;;;;;0.38;0.20;;;20.40;99.90;;;;;;5083607;28;20235;-74
2022/04/02 01:34:16;;;;;;;1.00;0.20;;;20.50;99.90;;;;;;5083602;28;20187;-74
2022/04/02 01:36:47;;;;;;;0.82;0.30;;;20.40;99.90;;;;;;5072272;28;20193;-73
2022/04/02 01:39:19;;;;;;;2.42;0.40;;;20.30;99.90;;;;;;5081894;28;20232;-77
2022/04/02 01:41:50;;;;;;;0.30;0.30;;;20.30;99.90;;;;;;5078261;28;20189;-73
2022/04/02 01:44:20;;;;;;;1.45;0.40;;;20.40;99.90;;;;;;5072918;28;20185;-75
2022/04/02 01:46:51;;;;;;;1.02;0.40;;;20.50;99.90;;;;;;5080437;28;20219;-81
2022/04/02 01:49:22;;;;;;;2.38;0.40;;;20.50;99.90;;;;;;5077676;28;20193;-74
2022/04/02 01:51:52;;;;;;;1.15;0.50;;;20.50;99.90;;;;;;5087783;28;20200;-75
2022/04/02 01:54:25;;;;;;;0.32;0.30;;;20.60;99.90;;;;;;5077833;28;20231;-73
2022/04/02 01:56:56;;;;;;;0.28;0.28;;;20.60;99.90;;;;;;5085702;28;20201;-74
2022/04/02 01:59:27;;;;;;;1.33;0.50;;;20.70;99.90;;;;;;5080382;28;20196;-73
2022/04/02 02:01:57;;;;;;;1.08;0.30;;;20.60;99.90;;;;;;5089964;28;20184;-72
2022/04/02 02:04:28;;;;;;;0.57;0.40;;;20.60;99.90;;;;;;5075407;28;20238;-73
2022/04/02 02:07:01;;;;;;;0.43;0.28;;;20.70;99.90;;;;;;5082337;28;20692;-73
2022/04/02 02:09:39;;;;;;;1.40;0.25;;;20.70;99.90;;;;;;5071657;28;20194;-73
2022/04/02 02:12:10;;;;;;;0.63;0.30;;;20.80;99.90;;;;;;5094412;28;20203;-72
2022/04/02 02:14:41;;;;;;;0.98;0.35;;;20.70;99.90;;;;;;5072487;28;20197;-73
2022/04/02 02:17:12;;;;;;;1.45;0.30;;;20.70;99.90;;;;;;5080889;28;20203;-75
2022/04/02 02:19:42;;;;;;;0.35;0.30;;;20.80;99.90;;;;;;5069395;28;20201;-72
2022/04/02 02:22:13;;;;;;;0.70;0.40;;;20.70;99.90;;;;;;5074253;28;20193;-74
2022/04/02 02:24:45;;;;;;;0.60;0.40;;;20.80;99.90;;;;;;5084049;28;20626;-73
2022/04/02 02:27:16;;;;;;;0.88;0.65;;;20.80;99.90;;;;;;5093987;28;20265;-73
2022/04/02 02:29:47;;;;;;;2.38;0.60;;;20.90;99.90;;;;;;5083745;28;20192;-74
2022/04/02 02:32:20;;;;;;;1.00;0.40;;;21.00;99.90;;;;;;5082920;28;20527;-73
2022/04/02 02:37:41;;;;;;;1.50;0.30;;;21.00;99.90;;;;;;5078093;28;20195;-74
2022/04/02 02:40:14;;;;;;;0.28;0.20;;;21.10;99.90;;;;;;5066674;28;20596;-73
2022/04/02 02:42:44;;;;;;;0.77;0.20;;;21.10;99.90;;;;;;5084257;28;20190;-73
2022/04/02 02:45:15;;;;;;;0.28;0.20;;;21.20;99.90;;;;;;5063429;28;20189;-72
2022/04/02 02:47:46;;;;;;;0.70;0.40;;;21.40;99.90;;;;;;5074475;28;20191;-73
2022/04/02 02:50:17;;;;;;;0.82;0.43;;;21.40;99.90;;;;;;5083467;28;20196;-74
2022/04/02 02:52:48;;;;;;;0.30;0.30;;;21.40;99.90;;;;;;5071071;28;20737;-73
2022/04/02 02:55:21;;;;;;;0.80;0.50;;;21.50;99.90;;;;;;5079053;28;20671;-73
2022/04/02 02:57:52;;;;;;;1.45;0.30;;;21.60;99.90;;;;;;5081618;28;20600;-73
2022/04/02 03:00:23;;;;;;;1.88;0.32;;;21.60;99.90;;;;;;5074994;28;20192;-74
2022/04/02 03:02:57;;;;;;;0.70;0.40;;;21.60;99.90;;;;;;5076057;28;20636;-77
2022/04/02 03:05:28;;;;;;;0.47;0.20;;;21.60;99.90;;;;;;5083970;28;20697;-74
2022/04/02 03:07:58;;;;;;;0.60;0.20;;;21.70;99.90;;;;;;5079296;28;20192;-72
2022/04/02 03:10:32;;;;;;;0.50;0.15;;;21.70;99.90;;;;;;5080858;28;20597;-74
2022/04/02 03:13:06;;;;;;;0.50;0.30;;;21.60;99.90;;;;;;5082016;28;20203;-74
2022/04/02 03:15:37;;;;;;;0.22;0.22;;;21.50;99.90;;;;;;5079323;28;20188;-73
2022/04/02 03:18:09;;;;;;;0.40;0.20;;;21.40;99.90;;;;;;5082719;28;20203;-75
2022/04/02 03:20:40;;;;;;;0.88;0.30;;;21.30;99.90;;;;;;5084408;28;20189;-73
2022/04/02 03:23:11;;;;;;;0.22;0.20;;;21.30;99.90;;;;;;5075652;28;20593;-73
2022/04/02 03:25:44;;;;;;;0.30;0.20;;;21.30;99.90;;;;;;5066001;28;20228;-72
2022/04/02 03:28:14;;;;;;;0.57;0.20;;;21.30;99.90;;;;;;5081164;28;20632;-74
2022/04/02 03:30:45;;;;;;;1.88;0.50;;;21.30;99.90;;;;;;5087917;28;20189;-73
2022/04/02 03:33:20;;;;;;;0.28;0.20;;;21.30;99.90;;;;;;5082933;28;20219;-73
2022/04/02 03:35:51;;;;;;;0.15;0.13;;;21.40;99.90;;;;;;5071496;28;20220;-74
2022/04/02 03:38:21;;;;;;;0.22;0.17;;;21.50;99.90;;;;;;5076207;28;20233;-72
2022/04/02 03:40:54;;;;;;;1.25;0.35;;;21.70;99.90;;;;;;5065719;28;20193;-80
2022/04/02 03:43:25;;;;;;;0.13;0.10;;;21.90;99.90;;;;;;5072007;28;20193;-85
2022/04/02 03:47:07;;;;;;;0.35;0.20;;;21.90;99.90;;;;;;5079568;28;20208;-83
2022/04/02 03:48:47;;;;;;;1.30;0.20;;;21.80;99.90;;;;;;5068032;28;20221;-83
2022/04/02 03:51:18;;;;;;;0.38;0.22;;;21.60;99.90;;;;;;5063923;28;20182;-82
2022/04/02 03:53:49;;;;;;;1.20;0.28;;;21.50;99.90;;;;;;5075800;28;20628;-82
2022/04/02 03:56:21;;;;;;;0.43;0.20;;;21.50;99.90;;;;;;5079863;28;20273;-79
2022/04/02 03:58:52;;;;;;;0.80;0.30;;;21.40;99.90;;;;;;5074798;28;20196;-80
2022/04/02 04:01:22;;;;;;;0.38;0.20;;;21.40;99.90;;;;;;5064951;28;20197;-82
2022/04/02 04:03:53;;;;;;;0.22;0.20;;;21.50;99.90;;;;;;5072539;28;20189;-83
2022/04/02 04:06:31;;;;;;;0.65;0.20;;;21.50;99.90;;;;;;5080378;28;20216;-81
2022/04/02 04:09:05;;;;;;;0.20;0.20;;;21.50;99.90;;;;;;5081020;28;20200;-84
2022/04/02 04:11:38;;;;;;;1.10;0.20;;;21.60;99.90;;;;;;5088911;28;20192;-83
2022/04/02 04:14:08;;;;;;;0.95;0.20;;;21.70;99.90;;;;;;5081148;28;20189;-83
2022/04/02 04:16:42;;;;;;;0.50;0.10;;;21.80;99.90;;;;;;5081221;28;20659;-81
2022/04/02 04:19:13;;;;;;;0.77;0.30;;;21.90;99.90;;;;;;5078884;28;20231;-80
2022/04/02 04:21:44;;;;;;;0.55;0.30;;;21.90;99.90;;;;;;5081612;28;20189;-80
2022/04/02 04:24:15;;;;;;;0.35;0.20;;;21.90;99.90;;;;;;5078831;28;20193;-85
2022/04/02 04:26:48;;;;;;;0.50;0.20;;;22.00;99.90;;;;;;5083666;28;20212;-87
2022/04/02 04:29:18;;;;;;;1.40;0.22;;;22.10;99.90;;;;;;5083792;28;20189;-79
2022/04/02 04:31:49;;;;;;;0.82;0.40;;;22.10;99.90;;;;;;5083452;28;20192;-80
2022/04/02 04:34:20;;;;;;;0.20;0.20;;;22.10;99.90;;;;;;5078378;28;20193;-85
2022/04/02 04:36:50;;;;;;;1.13;0.40;;;22.10;99.90;;;;;;5080945;28;20189;-78
2022/04/02 04:39:21;;;;;;;2.65;0.40;;;22.00;99.90;;;;;;5073180;28;20224;-83
2022/04/02 04:41:54;;;;;;;0.20;0.20;;;22.00;99.90;;;;;;5082731;28;20188;-82
2022/04/02 04:44:24;;;;;;;0.40;0.40;;;21.90;99.90;;;;;;5072960;28;20188;-83
2022/04/02 04:46:55;;;;;;;0.80;0.70;;;21.90;99.90;;;;;;5073995;28;20216;-82
2022/04/02 04:49:26;;;;;;;1.45;0.35;;;22.00;99.90;;;;;;5082987;28;20192;-76
2022/04/02 04:51:57;;;;;;;0.82;0.20;;;22.00;99.90;;;;;;5070352;28;20185;-81
2022/04/02 04:54:27;;;;;;;0.47;0.30;;;22.00;99.90;;;;;;5078063;28;20216;-82
2022/04/02 04:57:00;;;;;;;2.17;0.30;;;21.90;99.90;;;;;;5073302;28;20209;-83
2022/04/02 04:59:31;;;;;;;0.40;0.32;;;21.90;99.90;;;;;;5070708;28;20636;-78
2022/04/02 05:02:02;;;;;;;0.75;0.30;;;22.00;99.90;;;;;;5073082;28;20189;-81
2022/04/02 05:04:32;;;;;;;0.82;0.30;;;21.90;99.90;;;;;;5071448;28;20655;-80
2022/04/02 05:07:03;;;;;;;0.60;0.20;;;21.90;99.90;;;;;;5074302;28;20208;-82
2022/04/02 05:09:34;;;;;;;1.30;0.30;;;21.90;99.90;;;;;;5076691;28;20189;-81
2022/04/02 05:12:07;;;;;;;1.90;0.30;;;21.80;99.90;;;;;;5082322;28;20246;-80
2022/04/02 05:14:38;;;;;;;1.10;0.28;;;21.80;99.90;;;;;;5066066;28;20196;-80
2022/04/02 05:17:09;;;;;;;0.50;0.20;;;21.90;99.90;;;;;;5084051;28;20185;-81
2022/04/02 05:19:40;;;;;;;0.40;0.30;;;22.00;99.90;;;;;;5079602;28;20855;-81
2022/04/02 05:22:11;;;;;;;0.77;0.40;;;22.10;99.90;;;;;;5075972;28;20644;-81
2022/04/02 05:24:42;;;;;;;0.55;0.30;;;22.20;99.90;;;;;;5081063;28;20192;-82
2022/04/02 05:27:19;;;;;;;1.10;0.20;;;22.20;99.90;;;;;;5075048;28;20217;-83
2022/04/02 05:29:50;;;;;;;0.75;0.20;;;22.20;99.90;;;;;;5078352;28;20195;-81
2022/04/02 05:32:20;;;;;;;0.22;0.15;;;22.30;99.90;;;;;;5087446;28;20191;-78
2022/04/02 05:34:51;;;;;;;0.80;0.20;;;22.30;99.90;;;;;;5080074;28;20660;-81
2022/04/02 05:37:23;;;;;;;1.35;0.20;;;22.20;99.90;;;;;;5082776;28;20192;-80
2022/04/02 05:39:57;;;;;;;41.92;26.67;;;22.20;99.90;;;;;;5070828;28;20795;-86
2022/04/02 05:42:32;;;;;;;22.60;13.40;;;22.20;99.90;;;;;;5084703;28;20636;-73
2022/04/02 05:45:02;;;;;;;9.38;4.97;;;22.10;99.90;;;;;;5079713;28;20192;-80
2022/04/02 05:47:43;;;;;;;5.28;3.13;;;22.10;99.90;;;;;;5084725;28;20216;-80
2022/04/02 05:50:15;;;;;;;2.28;0.88;;;22.20;99.90;;;;;;5081339;28;20693;-81
2022/04/02 05:52:46;;;;;;;1.23;0.30;;;22.10;99.90;;;;;;5084651;28;20197;-78
2022/04/02 05:55:17;;;;;;;0.60;0.40;;;22.00;99.90;;;;;;5073875;28;20205;-73
2022/04/02 05:57:50;;;;;;;2.70;0.20;;;22.10;99.90;;;;;;5074622;28;20189;-79
2022/04/02 06:00:21;;;;;;;0.60;0.30;;;22.20;99.90;;;;;;5075080;28;20365;-77
2022/04/02 06:02:52;;;;;;;0.90;0.20;;;22.20;99.90;;;;;;5063099;28;20203;-79
2022/04/02 06:05:23;;;;;;;0.63;0.20;;;22.00;99.90;;;;;;5075539;28;20196;-76
2022/04/02 06:07:53;;;;;;;1.45;0.30;;;22.00;99.90;;;;;;5075100;28;20212;-77
2022/04/02 06:10:24;;;;;;;0.47;0.28;;;21.90;99.90;;;;;;5088842;28;20196;-77
2022/04/02 06:12:57;;;;;;;2.42;0.32;;;22.00;99.90;;;;;;5079270;28;20191;-77
2022/04/02 06:15:27;;;;;;;1.05;0.30;;;22.10;99.90;;;;;;5085232;28;20188;-78
2022/04/02 06:17:58;;;;;;;0.75;0.35;;;22.10;99.90;;;;;;5079047;28;20242;-77
2022/04/02 06:20:29;;;;;;;0.68;0.30;;;22.00;99.90;;;;;;5082852;28;20197;-80
2022/04/02 06:22:59;;;;;;;0.60;0.10;;;22.00;99.90;;;;;;5081699;28;20650;-81
2022/04/02 06:25:30;;;;;;;1.20;0.20;;;22.10;99.90;;;;;;5078252;28;20193;-78
2022/04/02 06:28:02;;;;;;;0.77;0.30;;;22.00;99.90;;;;;;5081686;28;20217;-78
2022/04/02 06:30:33;;;;;;;0.68;0.30;;;21.90;99.90;;;;;;5077670;28;20189;-78
2022/04/02 06:33:04;;;;;;;0.80;0.30;;;21.90;99.90;;;;;;5074290;28;20193;-79
2022/04/02 06:35:36;;;;;;;0.30;0.30;;;21.90;99.90;;;;;;5082692;28;20662;-82
2022/04/02 06:38:06;;;;;;;1.23;0.20;;;21.80;99.90;;;;;;5079172;28;20228;-79
2022/04/02 06:40:37;;;;;;;0.63;0.20;;;21.70;99.90;;;;;;5082540;28;20204;-80
2022/04/02 06:43:09;;;;;;;0.60;0.20;;;21.70;99.90;;;;;;5079968;28;20704;-81
2022/04/02 06:45:40;;;;;;;0.40;0.30;;;21.60;99.90;;;;;;5078327;28;20193;-79
2022/04/02 06:48:11;;;;;;;0.32;0.20;;;21.60;99.90;;;;;;5079238;28;20208;-79
2022/04/02 06:50:42;;;;;;;0.30;0.30;;;21.50;99.90;;;;;;5073291;28;20189;-79
2022/04/02 06:53:13;;;;;;;0.60;0.32;;;21.50;99.90;;;;;;5061139;28;20216;-80
2022/04/02 06:55:45;;;;;;;0.75;0.30;;;21.40;99.90;;;;;;5087892;28;20192;-77
2022/04/02 06:58:29;;;;;;;0.65;0.30;;;21.30;99.90;;;;;;5076338;28;20189;-79
2022/04/02 07:01:00;;;;;;;1.75;0.40;;;21.20;99.90;;;;;;5079122;28;20193;-78
2022/04/02 07:03:31;;;;;;;0.63;0.22;;;21.10;99.90;;;;;;5082776;28;20185;-79
2022/04/02 07:06:01;;;;;;;0.80;0.35;;;21.10;99.90;;;;;;5069560;28;20197;-80
2022/04/02 07:08:32;;;;;;;0.30;0.30;;;21.00;99.90;;;;;;5074909;28;20683;-78
2022/04/02 07:11:03;;;;;;;0.50;0.30;;;21.00;99.90;;;;;;5082958;28;20192;-78
2022/04/02 07:13:35;;;;;;;0.32;0.30;;;20.90;99.90;;;;;;5073522;28;20246;-79
2022/04/02 07:16:06;;;;;;;0.40;0.38;;;20.90;99.90;;;;;;5077228;28;20189;-80
2022/04/02 07:18:43;;;;;;;1.20;0.32;;;21.00;99.90;;;;;;5074288;28;20181;-80
2022/04/02 07:21:16;;;;;;;1.17;0.30;;;20.90;99.90;;;;;;5071531;28;20185;-80
2022/04/02 07:23:49;;;;;;;1.40;0.50;;;20.90;99.90;;;;;;5063267;28;20559;-79
2022/04/02 07:26:21;;;;;;;0.80;0.30;;;21.00;99.90;;;;;;5077548;28;20201;-79
2022/04/02 07:28:56;;;;;;;0.77;0.38;;;20.90;99.90;;;;;;5084862;28;20749;-76
2022/04/02 07:31:27;;;;;;;1.13;0.40;;;20.90;99.90;;;;;;5074811;28;20181;-81
2022/04/02 07:33:57;;;;;;;0.40;0.40;;;20.80;99.90;;;;;;5075044;28;20188;-81
2022/04/02 07:36:39;;;;;;;0.65;0.32;;;20.80;99.90;;;;;;5070249;28;20185;-78
2022/04/02 07:39:16;;;;;;;0.88;0.40;;;20.70;99.90;;;;;;5076977;28;20239;-79
2022/04/02 07:41:52;;;;;;;0.82;0.40;;;20.60;99.90;;;;;;5073292;28;20203;-77
2022/04/02 07:44:34;;;;;;;0.77;0.40;;;20.50;99.90;;;;;;5073974;28;20192;-73
2022/04/02 07:47:05;;;;;;;1.15;0.40;;;20.40;99.90;;;;;;5074274;28;20254;-72
2022/04/02 07:49:41;;;;;;;0.57;0.32;;;20.40;99.90;;;;;;5072757;28;20193;-73
2022/04/02 07:52:14;;;;;;;0.40;0.40;;;20.30;99.90;;;;;;5079074;28;20183;-73
2022/04/02 07:54:46;;;;;;;1.38;0.50;;;20.30;99.90;;;;;;5072400;28;20228;-73
2022/04/02 07:57:18;;;;;;;1.60;0.65;;;20.20;99.90;;;;;;5068705;28;20682;-73
2022/04/02 08:00:00;;;;;;;1.13;0.52;;;20.20;99.90;;;;;;5074064;28;20242;-74
2022/04/02 08:02:40;;;;;;;1.40;0.70;;;20.10;99.90;;;;;;5071429;28;20694;-73
2022/04/02 08:05:12;;;;;;;0.65;0.60;;;20.10;99.90;;;;;;5074922;28;20192;-73
2022/04/02 08:07:49;;;;;;;1.58;0.75;;;20.00;99.90;;;;;;5068542;28;20574;-73
2022/04/02 08:10:21;;;;;;;2.70;0.80;;;19.90;99.90;;;;;;5069341;28;20242;-76
2022/04/02 08:12:52;;;;;;;1.17;0.90;;;19.90;99.90;;;;;;5071688;28;20238;-72
2022/04/02 08:15:28;;;;;;;1.58;1.10;;;19.90;99.90;;;;;;5073395;28;20181;-72
2022/04/02 08:18:01;;;;;;;1.38;0.80;;;19.80;99.90;;;;;;5063950;28;20185;-71
2022/04/02 08:20:34;;;;;;;1.17;1.00;;;19.80;99.90;;;;;;5074222;28;20254;-72
2022/04/02 08:23:05;;;;;;;2.05;1.05;;;19.80;99.90;;;;;;5070517;28;20192;-72
2022/04/02 08:25:38;;;;;;;0.90;0.80;;;19.70;99.90;;;;;;5084270;28;20188;-74
2022/04/02 08:28:15;;;;;;;2.83;0.85;;;19.70;99.90;;;;;;5075633;28;20210;-77
2022/04/02 08:30:56;;;;;;;1.25;0.68;;;19.70;99.90;;;;;;5071724;28;20636;-77
2022/04/02 08:33:51;;;;;;;1.23;0.80;;;19.60;99.90;;;;;;5070375;28;20192;-77
2022/04/02 08:36:30;;;;;;;1.02;0.68;;;19.60;99.90;;;;;;5070642;28;20200;-78
2022/04/02 08:39:07;;;;;;;1.25;0.50;;;19.50;99.90;;;;;;5076713;28;20228;-72
2022/04/02 08:42:28;;;;;;;0.68;0.45;;;19.50;99.90;;;;;;5070958;28;20230;-78
2022/04/02 08:45:10;;;;;;;1.17;0.85;;;19.50;99.90;;;;;;5043792;28;20204;-76
2022/04/02 08:48:22;;;;;;;1.83;1.33;;;19.50;99.90;;;;;;5076391;28;20208;-76
2022/04/02 08:50:56;;;;;;;1.98;1.10;;;19.40;99.90;;;;;;5074286;28;20181;-74
2022/04/02 08:53:45;;;;;;;1.23;0.90;;;19.40;99.90;;;;;;5069718;28;20280;-73
2022/04/02 08:56:24;;;;;;;1.08;0.70;;;19.30;99.90;;;;;;5075945;28;20243;-78
2022/04/02 08:59:06;;;;;;;2.35;0.70;;;19.20;99.90;;;;;;5077075;28;20272;-72
2022/04/02 09:02:00;;;;;;;1.85;0.80;;;19.20;99.90;;;;;;5075688;28;20195;-78
2022/04/02 09:05:08;;;;;;;1.65;0.60;;;19.20;99.90;;;;;;5075601;28;20968;-72
2022/04/02 09:08:13;;;;;;;0.75;0.70;;;19.10;99.90;;;;;;5077310;28;20314;-74
2022/04/02 09:11:04;;;;;;;0.65;0.50;;;19.20;99.90;;;;;;5074237;28;20644;-73
2022/04/02 09:14:14;;;;;;;0.65;0.50;;;19.10;99.90;;;;;;5073012;28;20192;-74
2022/04/02 09:17:06;;;;;;;0.98;0.60;;;19.10;99.90;;;;;;5061663;28;20206;-73
2022/04/02 09:20:00;;;;;;;0.98;0.57;;;19.10;99.90;;;;;;5074684;28;20184;-72
2022/04/02 09:22:36;;;;;;;0.40;0.40;;;19.00;99.90;;;;;;5069429;28;20185;-73
2022/04/02 09:25:41;;;;;;;0.60;0.40;;;19.00;99.90;;;;;;5070070;28;20242;-74
2022/04/02 09:28:24;;;;;;;0.98;0.60;;;19.00;99.90;;;;;;5069060;28;20228;-73
2022/04/02 09:31:44;;;;;;;0.95;0.55;;;18.90;99.90;;;;;;5074948;28;20601;-73
2022/04/02 09:35:10;;;;;;;0.80;0.50;;;18.90;99.90;;;;;;4974433;28;20206;-73
2022/04/02 09:38:14;;;;;;;0.68;0.45;;;18.90;99.90;;;;;;5011992;28;20681;-74
2022/04/02 09:40:49;;;;;;;0.47;0.40;;;18.80;99.90;;;;;;5065730;28;20250;-72
2022/04/02 09:43:29;;;;;;;1.13;0.50;;;18.80;99.90;;;;;;5075754;28;20196;-74
2022/04/02 09:46:29;;;;;;;1.23;0.50;;;18.70;99.90;;;;;;5073513;28;20193;-73
2022/04/02 09:49:03;;;;;;;0.52;0.40;;;18.70;99.90;;;;;;5070477;28;20220;-74
2022/04/02 09:51:36;;;;;;;0.70;0.35;;;18.60;99.90;;;;;;5068565;28;20645;-74
2022/04/02 09:54:19;;;;;;;0.43;0.43;;;18.50;99.90;;;;;;5069712;28;20602;-73
2022/04/02 09:56:57;;;;;;;1.55;0.55;;;18.50;99.90;;;;;;5076622;28;20199;-73
2022/04/02 09:59:40;;;;;;;0.60;0.60;;;18.50;99.90;;;;;;5075928;28;20190;-74
2022/04/02 10:02:19;;;;;;;1.25;0.55;;;18.50;99.90;;;;;;5074482;28;20187;-75
2022/04/02 10:04:55;;;;;;;1.58;0.60;;;18.50;99.90;;;;;;5067996;28;20200;-73
2022/04/02 10:07:33;;;;;;;1.00;0.60;;;18.40;99.90;;;;;;5072370;28;20551;-74
2022/04/02 10:10:05;;;;;;;1.55;1.00;;;18.40;99.90;;;;;;5074238;28;20189;-72
2022/04/02 10:12:40;;;;;;;2.75;0.70;;;18.40;99.90;;;;;;5074155;28;20234;-77
2022/04/02 10:15:14;;;;;;;2.08;0.80;;;18.40;99.90;;;;;;5085072;28;20208;-73
2022/04/02 10:17:51;;;;;;;1.48;0.70;;;18.30;99.90;;;;;;5082120;28;20189;-73
2022/04/02 10:20:28;;;;;;;1.00;0.70;;;18.30;99.90;;;;;;5076308;28;20238;-74
2022/04/02 10:23:06;;;;;;;2.25;0.90;;;18.20;99.90;;;;;;5076394;28;20199;-76
2022/04/02 10:25:43;;;;;;;1.85;0.80;;;18.20;99.90;;;;;;5069678;28;20277;-73
2022/04/02 10:28:21;;;;;;;1.73;0.90;;;18.20;99.90;;;;;;5086599;28;20766;-74
2022/04/02 10:30:58;;;;;;;2.42;0.90;;;18.20;99.90;;;;;;5084604;28;20536;-77
2022/04/02 10:33:33;;;;;;;2.38;0.90;;;18.20;99.90;;;;;;5075311;28;20196;-72
2022/04/02 10:36:08;;;;;;;1.15;0.70;;;18.20;99.90;;;;;;5076202;28;20189;-72
2022/04/02 10:38:39;;;;;;;1.23;0.52;;;18.10;99.90;;;;;;5070018;28;20224;-73
2022/04/02 10:41:16;;;;;;;1.23;0.60;;;18.10;99.90;;;;;;5072923;28;20184;-74
2022/04/02 10:43:53;;;;;;;0.50;0.50;;;18.10;99.90;;;;;;5078828;28;20197;-72
2022/04/02 10:46:28;;;;;;;2.42;0.65;;;18.10;99.90;;;;;;5068905;28;20204;-73
2022/04/02 10:49:00;;;;;;;2.03;0.68;;;18.10;99.90;;;;;;5078662;28;20213;-72
2022/04/02 10:51:32;;;;;;;1.02;0.60;;;18.10;99.90;;;;;;5068894;28;20211;-74
2022/04/02 10:54:07;;;;;;;1.15;0.50;;;18.00;99.90;;;;;;5075858;28;20278;-73
2022/04/02 10:56:42;;;;;;;1.35;0.50;;;18.00;99.90;;;;;;5076949;28;20188;-72
2022/04/02 10:59:14;;;;;;;2.10;0.70;;;18.00;99.90;;;;;;5071286;28;20184;-78
2022/04/02 11:01:48;;;;;;;1.67;0.60;;;17.90;99.90;;;;;;5072833;28;20189;-72
2022/04/02 11:04:30;;;;;;;1.27;0.60;;;17.90;99.90;;;;;;5073536;28;20219;-72
2022/04/02 11:07:01;;;;;;;1.70;0.52;;;17.90;99.90;;;;;;5075696;28;20250;-74
2022/04/02 11:09:33;;;;;;;1.23;0.43;;;17.90;99.90;;;;;;5077438;28;20216;-74
2022/04/02 11:12:09;;;;;;;0.68;0.57;;;17.90;99.90;;;;;;5066795;28;20185;-72
2022/04/02 11:14:44;;;;;;;1.65;0.60;;;17.80;99.90;;;;;;5071855;28;20652;-72
2022/04/02 11:17:32;;;;;;;0.95;0.60;;;17.80;99.90;;;;;;5070503;28;20234;-73
2022/04/02 11:20:14;;;;;;;0.65;0.40;;;17.80;99.90;;;;;;5071031;28;20196;-74
2022/04/02 11:23:15;;;;;;;1.13;0.60;;;17.80;99.90;;;;;;5073458;28;20188;-73
2022/04/02 11:25:51;;;;;;;2.08;0.50;;;17.80;99.90;;;;;;5069911;28;20196;-73
2022/04/02 11:28:22;;;;;;;0.52;0.40;;;17.70;99.90;;;;;;5071416;28;20291;-74
2022/04/02 11:30:53;;;;;;;0.68;0.50;;;17.70;99.90;;;;;;5073380;28;20238;-72
2022/04/02 11:33:27;;;;;;;1.67;0.43;;;17.70;99.90;;;;;;5073263;28;20230;-73
2022/04/02 11:35:59;;;;;;;0.38;0.38;;;17.70;99.90;;;;;;5070467;28;20229;-74
2022/04/02 11:38:35;;;;;;;1.45;0.40;;;17.70;99.90;;;;;;5072362;28;20607;-73
2022/04/02 11:41:22;;;;;;;1.45;0.50;;;17.70;99.90;;;;;;5074974;28;20192;-73
2022/04/02 11:44:07;;;;;;;1.27;0.55;;;17.60;99.90;;;;;;5074593;28;20658;-73
2022/04/02 11:46:57;;;;;;;2.15;0.47;;;17.60;99.90;;;;;;5072633;28;20189;-74
2022/04/02 11:49:33;;;;;;;0.80;0.43;;;17.60;99.90;;;;;;5074211;28;20216;-73
2022/04/02 11:52:06;;;;;;;0.80;0.40;;;17.60;99.90;;;;;;5074614;28;20427;-73
2022/04/02 11:54:43;;;;;;;1.30;0.60;;;17.50;99.90;;;;;;5074855;28;20200;-73
2022/04/02 11:57:15;;;;;;;0.40;0.40;;;17.50;99.90;;;;;;5071052;28;20193;-73
2022/04/02 11:59:53;;;;;;;0.70;0.50;;;17.50;99.90;;;;;;5079147;28;20245;-73
2022/04/02 12:02:40;;;;;;;0.65;0.50;;;17.50;99.90;;;;;;5083040;28;20193;-74
2022/04/02 12:05:14;;;;;;;1.05;0.52;;;17.40;99.90;;;;;;5075585;28;20248;-73
2022/04/02 12:07:45;;;;;;;1.65;0.50;;;17.40;99.90;;;;;;5078667;28;20185;-73
2022/04/02 12:10:17;;;;;;;1.88;0.60;;;17.40;99.90;;;;;;5081193;28;20687;-74
2022/04/02 12:12:49;;;;;;;0.90;0.60;;;17.40;99.90;;;;;;5080534;28;20702;-74
2022/04/02 12:15:21;;;;;;;0.47;0.40;;;17.40;99.90;;;;;;5073683;28;20555;-74
2022/04/02 12:17:53;;;;;;;2.20;0.60;;;17.40;99.90;;;;;;5076855;28;20233;-73
2022/04/02 12:20:32;;;;;;;1.45;0.50;;;17.30;99.90;;;;;;5068029;28;20640;-73
2022/04/02 12:23:13;;;;;;;1.75;0.50;;;17.30;99.90;;;;;;5078891;28;20188;-73
2022/04/02 12:25:45;;;;;;;1.77;0.60;;;17.30;99.90;;;;;;5065026;28;20185;-73
2022/04/02 12:28:19;;;;;;;1.20;0.70;;;17.30;99.90;;;;;;5078092;28;20614;-75
2022/04/02 12:30:52;;;;;;;2.40;0.60;;;17.30;99.90;;;;;;5087008;28;20189;-72
2022/04/02 12:33:23;;;;;;;1.27;0.60;;;17.20;99.90;;;;;;5073283;28;20188;-76
2022/04/02 12:36:02;;;;;;;1.27;0.80;;;17.20;99.90;;;;;;5072983;28;20192;-73
2022/04/02 12:38:35;;;;;;;1.10;0.60;;;17.20;99.90;;;;;;5079100;28;20277;-75
2022/04/02 12:41:07;;;;;;;2.90;0.70;;;17.10;99.90;;;;;;5083415;28;20185;-73
2022/04/02 12:43:40;;;;;;;2.20;0.70;;;17.00;99.90;;;;;;5067962;28;20193;-72
2022/04/02 12:46:24;;;;;;;1.08;0.68;;;17.00;99.90;;;;;;5068719;28;20189;-74
2022/04/02 12:48:56;;;;;;;1.48;0.70;;;17.00;99.90;;;;;;5067688;28;20219;-72
2022/04/02 12:51:29;;;;;;;1.85;0.80;;;16.90;99.90;;;;;;5079749;28;20195;-73
2022/04/02 12:54:01;;;;;;;1.08;0.80;;;16.90;99.90;;;;;;5078741;28;20590;-73
2022/04/02 12:56:34;;;;;;;1.65;0.85;;;16.90;99.90;;;;;;5080675;28;20185;-72
2022/04/02 12:59:05;;;;;;;1.58;0.80;;;16.80;99.90;;;;;;5087462;28;20188;-77
2022/04/02 13:01:38;;;;;;;1.48;1.00;;;16.80;99.90;;;;;;5073781;28;20193;-78
2022/04/02 13:04:13;;;;;;;1.52;1.00;;;16.80;99.90;;;;;;5073365;28;20205;-78
2022/04/02 13:06:52;;;;;;;1.45;0.85;;;16.80;99.90;;;;;;5065333;28;20192;-78
2022/04/02 13:09:23;;;;;;;1.98;0.93;;;16.80;99.90;;;;;;5077646;28;20215;-78
2022/04/02 13:12:01;;;;;;;1.27;0.90;;;16.70;99.90;;;;;;5087223;28;20555;-79
2022/04/02 13:14:42;;;;;;;2.33;1.00;;;16.70;99.90;;;;;;5079740;28;20228;-78
2022/04/02 13:17:14;;;;;;;1.45;0.80;;;16.60;99.90;;;;;;5065078;28;20713;-78
2022/04/02 13:22:53;;;;;;;1.50;0.90;;;16.60;99.90;;;;;;5072416;28;20246;-77
2022/04/02 13:25:25;;;;;;;1.17;0.90;;;16.60;99.90;;;;;;5073209;28;20243;-79
2022/04/02 13:28:16;;;;;;;1.70;0.80;;;16.60;99.90;;;;;;5066314;28;20190;-78
2022/04/02 13:30:51;;;;;;;2.50;0.95;;;16.60;99.90;;;;;;5081447;28;20239;-78
2022/04/02 13:34:04;;;;;;;1.13;0.88;;;16.50;99.90;;;;;;5071088;28;20532;-78